Terminal Aerodrome Forecast
Issued by NWS

Home | Current Version | Previous Version | Text Only | Print | Product List | Glossary On
Versions: 1 2 3 4 5 6 7 8 9 10 11 12 13 14 15 16 17 18 19 20 21 22
000
FTUS43 KEAX 232008 AAC
TAFMKC
TAF AMD
KMKC 232008Z 2320/2418 17010KT P6SM -SHRA VCTS OVC040CB
      TEMPO 2320/2322 4SM -TSRA
     FM240000 17006KT P6SM OVC030
     FM241200 18008KT P6SM VCTS OVC025CB=

USA.gov is the U.S. government's official web portal to all federal, state and local government web resources and services.